KIOW

Iowa City Municipal Airport

Iowa City, Iowa, USA
METAR KIOW 181052Z AUTO 21006KT 10SM CLR 25/22 A2996 RMK AO2 SLP137 T02500217
Observed Flight Rules
Jun-18 @ 10:52 UTC (19 minutes ago) Visual Flight Rules
Wind Visibility Clouds
210° at 6 knots 10 miles
  • Clear skies
Temperatures Readings
Current 25°C / 77°F
Dewpoint 22°C / 72°F
Humidity 83%
Altimeter 29.96" Hg
Pressure 1013.7 hPa
Elevation 198
METAR KIOW 181052Z AUTO 21006KT 10SM CLR 25/22 A2996 RMK AO2 SLP137 T02500217
Observed Flight Rules
Jun-18 @ 10:52 UTC
(19 minutes ago)
VFR
Wind Visibility
210° at 6 knots 10 miles
Clouds
  • Clear skies
Temperature Dewpoint
25°C / 77°F 22°C / 72°F
Humidity Altimeter Pressure
83% 29.96" Hg 1013.7 hPa